createdAt,value
2018-07-07T00:00:20.786Z,13.80
2018-07-07T00:02:49.864Z,13.70
2018-07-07T00:05:18.959Z,13.50
2018-07-07T00:07:48.017Z,13.30
2018-07-07T00:15:17.644Z,13.50
2018-07-07T00:17:47.203Z,13.80
2018-07-07T00:20:16.895Z,14.00
2018-07-07T00:25:17.376Z,14.10
2018-07-07T00:27:47.080Z,14.00
2018-07-07T00:30:16.706Z,13.90
2018-07-07T00:32:45.767Z,13.90
2018-07-07T00:35:14.884Z,13.80
2018-07-07T00:37:43.958Z,13.70
2018-07-07T00:40:13.050Z,13.70
2018-07-07T00:42:42.099Z,13.60
2018-07-07T00:45:11.181Z,13.40
2018-07-07T00:47:40.244Z,13.40
2018-07-07T00:50:09.320Z,13.50
2018-07-07T00:52:38.380Z,13.50
2018-07-07T00:55:07.460Z,13.40
2018-07-07T00:57:36.525Z,13.40
2018-07-07T01:00:05.607Z,13.50
2018-07-07T01:05:03.367Z,13.40
2018-07-07T01:07:32.420Z,13.50
2018-07-07T01:10:01.488Z,13.40
2018-07-07T01:12:30.535Z,13.40
2018-07-07T01:14:59.600Z,13.40
2018-07-07T01:17:28.648Z,13.30
2018-07-07T01:19:57.711Z,13.20
2018-07-07T01:22:26.762Z,13.20
2018-07-07T01:24:55.856Z,13.20
2018-07-07T01:27:24.905Z,13.10
2018-07-07T01:29:53.968Z,13.00
2018-07-07T01:32:23.107Z,12.90
2018-07-07T01:34:52.184Z,12.90
2018-07-07T01:37:21.231Z,12.80
2018-07-07T01:42:18.990Z,12.60
2018-07-07T01:44:48.064Z,12.50
2018-07-07T01:47:17.107Z,12.40
2018-07-07T01:49:46.184Z,12.30
2018-07-07T01:52:15.231Z,12.20
2018-07-07T01:54:44.316Z,12.00
2018-07-07T01:57:13.363Z,11.90
2018-07-07T01:59:42.445Z,11.80
2018-07-07T02:02:11.487Z,11.70
2018-07-07T02:04:40.576Z,11.50
2018-07-07T02:07:09.615Z,11.40
2018-07-07T02:09:38.679Z,11.20
2018-07-07T02:12:07.727Z,11.00
2018-07-07T02:14:36.808Z,11.00
2018-07-07T02:17:05.923Z,10.90
2018-07-07T02:19:35.003Z,10.80
2018-07-07T02:22:04.072Z,10.80
2018-07-07T02:24:33.146Z,10.70
2018-07-07T02:29:30.903Z,11.00
2018-07-07T02:31:59.952Z,11.10
2018-07-07T02:34:29.019Z,11.10
2018-07-07T02:36:58.092Z,11.00
2018-07-07T02:39:27.139Z,11.00
2018-07-07T02:41:56.212Z,10.90
2018-07-07T02:46:53.954Z,10.80
2018-07-07T02:49:23.013Z,10.70
2018-07-07T02:51:52.083Z,10.70
2018-07-07T02:54:21.132Z,10.60
2018-07-07T02:56:50.204Z,10.60
2018-07-07T02:59:19.252Z,10.50
2018-07-07T03:01:48.323Z,10.50
2018-07-07T03:04:17.416Z,10.40
2018-07-07T03:06:46.509Z,10.30
2018-07-07T03:09:15.679Z,10.30
2018-07-07T03:11:44.747Z,10.20
2018-07-07T03:16:42.505Z,10.30
2018-07-07T03:19:11.555Z,10.30
2018-07-07T03:21:40.637Z,10.30
2018-07-07T03:24:09.691Z,10.20
2018-07-07T03:26:38.759Z,10.20
2018-07-07T03:29:07.816Z,10.40
2018-07-07T03:31:36.892Z,10.40
2018-07-07T03:34:06.112Z,10.40
2018-07-07T03:39:04.553Z,10.50
2018-07-07T03:41:33.633Z,10.60
2018-07-07T03:44:02.727Z,10.60
2018-07-07T03:46:31.808Z,10.60
2018-07-07T03:49:00.867Z,10.70
2018-07-07T03:51:29.949Z,10.70
2018-07-07T03:53:59.000Z,10.70
2018-07-07T03:56:28.071Z,10.70
2018-07-07T03:58:57.163Z,10.80
2018-07-07T04:01:26.564Z,10.80
2018-07-07T04:03:55.617Z,10.90
2018-07-07T04:06:24.720Z,11.00
2018-07-07T04:08:53.768Z,11.10
2018-07-07T04:13:51.585Z,11.00
2018-07-07T04:16:20.665Z,11.10
2018-07-07T04:18:49.709Z,11.20
2018-07-07T04:21:18.783Z,11.20
2018-07-07T04:23:47.835Z,11.30
2018-07-07T04:26:16.909Z,11.30
2018-07-07T04:28:45.972Z,11.30
2018-07-07T04:31:15.045Z,11.30
2018-07-07T04:33:44.101Z,11.30
2018-07-07T04:36:13.171Z,11.50
2018-07-07T04:38:42.229Z,11.50
2018-07-07T04:41:11.304Z,11.60
2018-07-07T04:46:09.055Z,11.70
2018-07-07T04:48:38.116Z,11.80
2018-07-07T04:51:07.193Z,11.80
2018-07-07T04:53:36.263Z,11.80
2018-07-07T04:56:05.716Z,12.00
2018-07-07T04:58:34.768Z,12.00
2018-07-07T05:01:03.856Z,12.10
2018-07-07T05:03:32.915Z,12.30
2018-07-07T05:06:02.004Z,12.30
2018-07-07T05:08:31.054Z,12.40
2018-07-07T05:13:28.808Z,12.60
2018-07-07T05:15:57.883Z,12.70
2018-07-07T05:18:26.935Z,12.80
2018-07-07T05:25:53.348Z,13.10
2018-07-07T05:28:22.424Z,13.20
2018-07-07T05:30:51.524Z,13.30
2018-07-07T05:33:20.598Z,13.40
2018-07-07T05:38:18.404Z,13.40
2018-07-07T05:40:47.471Z,13.50
2018-07-07T05:45:46.229Z,13.80
2018-07-07T05:48:15.299Z,14.00
2018-07-07T05:50:44.355Z,14.10
2018-07-07T05:53:13.427Z,14.20
2018-07-07T05:55:42.538Z,14.40
2018-07-07T05:58:11.616Z,14.50
2018-07-07T06:00:40.682Z,14.60
2018-07-07T06:03:09.780Z,14.80
2018-07-07T06:05:38.871Z,14.90
2018-07-07T06:08:07.948Z,14.90
2018-07-07T06:13:05.871Z,15.10
2018-07-07T06:15:34.952Z,15.20
2018-07-07T06:18:04.027Z,15.20
2018-07-07T06:20:33.087Z,15.30
2018-07-07T06:23:02.172Z,15.40
2018-07-07T06:25:31.236Z,15.50
2018-07-07T06:28:00.567Z,15.60
2018-07-07T06:30:29.638Z,15.80
2018-07-07T06:32:58.717Z,16.00
2018-07-07T06:35:27.939Z,16.10
2018-07-07T06:37:57.019Z,16.20
2018-07-07T06:42:54.781Z,16.40
2018-07-07T06:45:23.977Z,16.50
2018-07-07T06:47:53.083Z,16.50
2018-07-07T06:52:50.830Z,16.70
2018-07-07T06:55:19.896Z,16.80
2018-07-07T06:57:48.964Z,17.00
2018-07-07T07:00:18.024Z,17.20
2018-07-07T07:02:47.109Z,17.40
2018-07-07T07:05:16.175Z,17.60
2018-07-07T07:07:45.248Z,17.70
2018-07-07T07:12:42.991Z,17.70
2018-07-07T07:15:12.040Z,17.80
2018-07-07T07:17:41.112Z,18.00
2018-07-07T07:22:38.852Z,18.00
2018-07-07T07:25:07.959Z,18.00
2018-07-07T07:27:37.030Z,18.10
2018-07-07T07:30:06.177Z,18.00
2018-07-07T07:32:35.252Z,18.00
2018-07-07T07:35:04.303Z,17.90
2018-07-07T07:37:33.384Z,18.10
2018-07-07T07:40:02.670Z,18.30
2018-07-07T07:42:31.736Z,18.50
2018-07-07T07:45:00.871Z,18.50
2018-07-07T07:47:29.939Z,18.60
2018-07-07T07:49:59.004Z,18.80
2018-07-07T07:52:28.087Z,18.90
2018-07-07T07:54:57.185Z,18.90
2018-07-07T07:57:26.610Z,18.90
2018-07-07T07:59:55.727Z,18.80
2018-07-07T08:02:24.799Z,18.80
2018-07-07T08:04:53.894Z,18.90
2018-07-07T08:07:22.966Z,18.90
2018-07-07T08:09:52.027Z,18.90
2018-07-07T08:12:21.126Z,18.80
2018-07-07T08:14:50.524Z,18.90
2018-07-07T08:17:19.567Z,19.00
2018-07-07T08:19:48.652Z,19.00
2018-07-07T08:22:17.964Z,19.20
2018-07-07T08:24:47.031Z,19.40
2018-07-07T08:29:45.007Z,19.70
2018-07-07T08:32:14.060Z,19.50
2018-07-07T08:34:43.128Z,19.40
2018-07-07T08:37:12.177Z,19.50
2018-07-07T08:39:41.251Z,19.60
2018-07-07T08:42:10.365Z,19.70
2018-07-07T08:44:39.405Z,19.60
2018-07-07T08:47:08.452Z,19.70
2018-07-07T08:49:37.531Z,19.70
2018-07-07T08:52:06.579Z,19.70
2018-07-07T08:54:35.657Z,19.60
2018-07-07T08:57:04.983Z,19.50
2018-07-07T09:02:02.723Z,19.90
2018-07-07T09:04:31.816Z,20.10
2018-07-07T09:07:00.867Z,19.90
2018-07-07T09:09:29.940Z,20.10
2018-07-07T09:11:58.992Z,20.20
2018-07-07T09:14:28.069Z,20.20
2018-07-07T09:16:57.119Z,20.50
2018-07-07T09:19:26.193Z,20.60
2018-07-07T09:21:55.247Z,20.60
2018-07-07T09:24:24.321Z,20.60
2018-07-07T09:26:53.376Z,20.60
2018-07-07T09:29:22.447Z,20.70
2018-07-07T09:31:51.503Z,20.70
2018-07-07T09:34:20.571Z,20.80
2018-07-07T09:36:49.629Z,20.70
2018-07-07T09:39:18.706Z,20.80
2018-07-07T09:44:16.511Z,21.00
2018-07-07T09:46:45.560Z,21.20
2018-07-07T09:49:14.637Z,21.30
2018-07-07T09:51:43.683Z,21.50
2018-07-07T09:54:13.764Z,21.50
2018-07-07T09:56:42.877Z,21.60
2018-07-07T09:59:12.050Z,21.60
2018-07-07T10:01:41.100Z,21.90
2018-07-07T10:04:10.232Z,22.20
2018-07-07T10:06:39.304Z,22.20
2018-07-07T10:09:08.388Z,22.10
2018-07-07T10:11:37.448Z,22.20
2018-07-07T10:14:06.525Z,22.10
2018-07-07T10:16:35.585Z,22.40
2018-07-07T10:19:04.652Z,22.50
2018-07-07T10:21:33.703Z,22.70
2018-07-07T10:24:02.789Z,23.00
2018-07-07T10:26:31.851Z,22.90
2018-07-07T10:29:00.920Z,22.90
2018-07-07T10:31:30.044Z,23.00
2018-07-07T10:33:59.292Z,23.00
2018-07-07T10:36:28.360Z,23.10
2018-07-07T10:38:57.423Z,23.40
2018-07-07T10:43:55.203Z,23.40
2018-07-07T10:46:24.260Z,23.40
2018-07-07T10:48:53.380Z,23.50
2018-07-07T10:51:22.415Z,23.60
2018-07-07T10:53:51.484Z,23.90
2018-07-07T10:56:20.544Z,24.10
2018-07-07T10:58:49.980Z,24.20
2018-07-07T11:01:19.044Z,24.10
2018-07-07T11:03:48.177Z,24.30
2018-07-07T11:06:17.301Z,24.10
2018-07-07T11:08:46.357Z,24.00
2018-07-07T11:11:15.435Z,24.10
2018-07-07T11:13:44.500Z,24.40
2018-07-07T11:16:13.567Z,24.50
2018-07-07T11:21:11.659Z,24.80
2018-07-07T11:26:09.395Z,25.10
2018-07-07T11:28:38.452Z,25.00
2018-07-07T11:31:07.644Z,25.10
2018-07-07T11:38:34.331Z,25.00
2018-07-07T11:41:04.255Z,25.10
2018-07-07T11:43:33.309Z,25.10
2018-07-07T11:46:02.381Z,25.30
2018-07-07T11:48:31.427Z,25.80
2018-07-07T11:51:00.491Z,25.30
2018-07-07T11:53:29.552Z,25.20
2018-07-07T11:55:58.628Z,25.30
2018-07-07T11:58:27.672Z,25.50
2018-07-07T12:00:56.739Z,25.80
2018-07-07T12:03:25.779Z,25.50
2018-07-07T12:05:54.880Z,25.30
2018-07-07T12:13:21.334Z,25.20
2018-07-07T12:15:50.403Z,25.10
2018-07-07T12:18:19.452Z,25.50
2018-07-07T12:23:17.184Z,25.70
2018-07-07T12:25:46.251Z,25.50
2018-07-07T12:28:15.304Z,25.30
2018-07-07T12:30:44.567Z,25.50
2018-07-07T12:33:13.611Z,25.60
2018-07-07T12:35:42.679Z,25.50
2018-07-07T12:38:11.756Z,25.60
2018-07-07T12:40:40.847Z,25.60
2018-07-07T12:43:09.904Z,25.90
2018-07-07T12:48:07.669Z,25.80
2018-07-07T12:50:36.745Z,26.40
2018-07-07T12:53:05.861Z,27.20
2018-07-07T12:55:34.939Z,28.80
2018-07-07T12:58:03.991Z,29.40
2018-07-07T13:00:33.073Z,28.90
2018-07-07T13:03:02.144Z,29.20
2018-07-07T13:05:31.272Z,29.90
2018-07-07T13:08:00.316Z,30.90
2018-07-07T13:10:29.408Z,30.90
2018-07-07T13:12:58.479Z,30.40
2018-07-07T13:15:27.552Z,30.10
2018-07-07T13:25:22.767Z,31.40
2018-07-07T13:27:51.816Z,30.80
2018-07-07T13:30:20.896Z,30.80
2018-07-07T13:32:49.946Z,30.80
2018-07-07T13:35:19.152Z,31.20
2018-07-07T13:40:16.937Z,30.90
2018-07-07T13:42:46.001Z,30.80
2018-07-07T13:45:15.106Z,31.00
2018-07-07T13:47:44.226Z,30.50
2018-07-07T13:50:13.308Z,31.10
2018-07-07T13:52:42.364Z,31.10
2018-07-07T13:55:11.452Z,31.00
2018-07-07T14:00:09.187Z,31.00
2018-07-07T14:02:38.267Z,31.30
2018-07-07T14:05:07.559Z,31.80
2018-07-07T14:07:36.700Z,32.00
2018-07-07T14:10:06.001Z,31.80
2018-07-07T14:12:35.128Z,31.70
2018-07-07T14:15:04.256Z,32.00
2018-07-07T14:17:33.365Z,32.30
2018-07-07T14:20:02.408Z,31.50
2018-07-07T14:22:31.489Z,31.80
2018-07-07T14:25:00.547Z,32.10
2018-07-07T14:27:29.635Z,32.50
2018-07-07T14:29:58.688Z,32.60
2018-07-07T14:32:27.764Z,33.10
2018-07-07T14:34:56.823Z,32.80
2018-07-07T14:37:25.903Z,33.10
2018-07-07T14:39:57.071Z,32.50
2018-07-07T14:42:39.019Z,32.50
2018-07-07T14:45:14.674Z,32.70
2018-07-07T14:47:44.755Z,32.20
2018-07-07T14:50:14.374Z,32.80
2018-07-07T14:52:43.769Z,32.70
2018-07-07T14:55:13.659Z,32.70
2018-07-07T14:57:43.367Z,33.00
2018-07-07T15:00:16.459Z,33.80
2018-07-07T15:02:46.784Z,34.70
2018-07-07T15:05:15.888Z,34.50
2018-07-07T15:07:45.199Z,34.00
2018-07-07T15:10:14.897Z,33.80
2018-07-07T15:12:44.623Z,33.90
2018-07-07T15:15:14.012Z,33.40
2018-07-07T15:17:43.952Z,34.00
2018-07-07T15:20:13.019Z,33.70
2018-07-07T15:22:42.162Z,33.10
2018-07-07T15:25:11.292Z,32.80
2018-07-07T15:30:09.707Z,34.40
2018-07-07T15:32:38.927Z,34.00
2018-07-07T15:35:08.011Z,34.30
2018-07-07T15:37:37.171Z,34.50
2018-07-07T15:42:35.305Z,35.10
2018-07-07T15:45:04.424Z,34.40
2018-07-07T15:47:33.496Z,35.30
2018-07-07T15:50:02.548Z,35.50
2018-07-07T15:52:31.623Z,35.30
2018-07-07T15:55:00.688Z,35.90
2018-07-07T15:57:29.764Z,36.10
2018-07-07T15:59:58.824Z,37.00
2018-07-07T16:02:27.891Z,36.70
2018-07-07T16:04:56.974Z,36.70
2018-07-07T16:07:26.044Z,36.60
2018-07-07T16:09:55.126Z,36.70
2018-07-07T16:12:24.243Z,36.40
2018-07-07T16:14:53.301Z,36.20
2018-07-07T16:17:22.375Z,35.30
2018-07-07T16:19:51.456Z,35.60
2018-07-07T16:22:20.537Z,35.30
2018-07-07T16:24:49.705Z,35.60
2018-07-07T16:29:47.467Z,36.60
2018-07-07T16:32:16.555Z,35.70
2018-07-07T16:34:45.663Z,36.20
2018-07-07T16:37:14.740Z,34.60
2018-07-07T16:39:43.796Z,34.60
2018-07-07T16:42:13.196Z,33.80
2018-07-07T16:44:42.244Z,34.80
2018-07-07T16:47:11.616Z,34.50
2018-07-07T16:49:40.680Z,33.90
2018-07-07T16:52:09.999Z,35.00
2018-07-07T16:54:41.644Z,34.10
2018-07-07T16:57:12.615Z,33.90
2018-07-07T16:59:41.667Z,34.30
2018-07-07T17:04:39.440Z,33.60
2018-07-07T17:07:08.528Z,33.10
2018-07-07T17:09:37.596Z,33.90
2018-07-07T17:12:06.691Z,33.90
2018-07-07T17:14:35.784Z,33.70
2018-07-07T17:17:04.928Z,33.40
2018-07-07T17:22:02.744Z,33.00
2018-07-07T17:24:32.255Z,33.10
2018-07-07T17:27:01.329Z,32.70
2018-07-07T17:34:28.402Z,32.50
2018-07-07T17:36:57.489Z,32.60
2018-07-07T17:39:26.992Z,32.20
2018-07-07T17:41:56.069Z,31.90
2018-07-07T17:44:25.151Z,32.10
2018-07-07T17:46:54.199Z,32.10
2018-07-07T17:51:51.979Z,31.50
2018-07-07T17:54:21.090Z,32.10
2018-07-07T17:56:50.144Z,31.60
2018-07-07T17:59:19.224Z,31.60
2018-07-07T18:01:48.271Z,31.60
2018-07-07T18:04:17.369Z,31.20
2018-07-07T18:06:46.445Z,30.40
2018-07-07T18:09:15.523Z,29.90
2018-07-07T18:11:44.644Z,29.80
2018-07-07T18:14:13.688Z,30.20
2018-07-07T18:16:42.807Z,29.40
2018-07-07T18:19:11.947Z,29.30
2018-07-07T18:21:41.415Z,29.10
2018-07-07T18:24:10.496Z,29.40
2018-07-07T18:26:39.556Z,29.30
2018-07-07T18:29:08.667Z,29.30
2018-07-07T18:31:37.716Z,28.70
2018-07-07T18:34:06.793Z,28.80
2018-07-07T18:36:35.852Z,28.50
2018-07-07T18:39:05.480Z,28.70
2018-07-07T18:41:34.533Z,28.80
2018-07-07T18:46:32.359Z,27.90
2018-07-07T18:49:01.432Z,27.40
2018-07-07T18:51:30.537Z,26.30
2018-07-07T18:53:59.711Z,25.30
2018-07-07T18:58:57.570Z,23.90
2018-07-07T19:01:26.628Z,23.40
2018-07-07T19:03:55.691Z,23.10
2018-07-07T19:06:24.764Z,22.80
2018-07-07T19:08:53.828Z,22.50
2018-07-07T19:11:22.920Z,22.30
2018-07-07T19:13:52.079Z,22.20
2018-07-07T19:16:21.148Z,22.00
2018-07-07T19:18:50.229Z,21.90
2018-07-07T19:21:24.532Z,21.80
2018-07-07T19:23:58.963Z,21.60
2018-07-07T19:26:33.343Z,21.50
2018-07-07T19:29:02.413Z,21.40
2018-07-07T19:34:09.082Z,21.10
2018-07-07T19:39:12.203Z,21.10
2018-07-07T19:41:41.259Z,21.00
2018-07-07T19:44:10.319Z,20.90
2018-07-07T19:46:39.367Z,20.80
2018-07-07T19:49:08.439Z,20.70
2018-07-07T19:51:37.504Z,20.60
2018-07-07T19:54:06.619Z,20.60
2018-07-07T19:56:35.771Z,20.40
2018-07-07T19:59:04.852Z,20.40
2018-07-07T20:01:33.932Z,20.30
2018-07-07T20:04:03.009Z,20.30
2018-07-07T20:06:32.097Z,20.20
2018-07-07T20:09:01.532Z,20.10
2018-07-07T20:11:30.588Z,20.10
2018-07-07T20:16:39.740Z,20.00
2018-07-07T20:19:17.354Z,19.90
2018-07-07T20:21:49.123Z,19.70
2018-07-07T20:24:20.331Z,19.60
2018-07-07T20:26:54.740Z,19.40
2018-07-07T20:29:23.937Z,19.30
2018-07-07T20:31:54.413Z,19.40
2018-07-07T20:34:24.631Z,19.50
2018-07-07T20:36:54.041Z,19.40
2018-07-07T20:39:23.470Z,19.40
2018-07-07T20:41:53.125Z,19.40
2018-07-07T20:46:51.043Z,19.40
2018-07-07T20:49:20.125Z,19.20
2018-07-07T20:51:49.184Z,19.20
2018-07-07T20:54:18.276Z,19.10
2018-07-07T20:56:47.334Z,19.00
2018-07-07T20:59:16.421Z,19.00
2018-07-07T21:01:45.520Z,18.90
2018-07-07T21:04:14.589Z,18.90
2018-07-07T21:09:12.388Z,18.90
2018-07-07T21:11:41.505Z,18.80
2018-07-07T21:14:10.628Z,18.70
2018-07-07T21:16:39.683Z,18.70
2018-07-07T21:19:08.767Z,18.60
2018-07-07T21:21:37.815Z,18.60
2018-07-07T21:24:06.923Z,18.50
2018-07-07T21:26:35.999Z,18.40
2018-07-07T21:29:05.078Z,18.20
2018-07-07T21:31:34.232Z,18.10
2018-07-07T21:34:03.315Z,18.00
2018-07-07T21:36:32.376Z,17.90
2018-07-07T21:39:01.456Z,17.80
2018-07-07T21:41:30.511Z,17.70
2018-07-07T21:43:59.571Z,17.60
2018-07-07T21:46:28.635Z,17.50
2018-07-07T21:48:57.695Z,17.60
2018-07-07T21:51:26.744Z,17.50
2018-07-07T21:53:55.961Z,17.40
2018-07-07T21:56:24.916Z,17.30
2018-07-07T21:58:59.402Z,17.10
2018-07-07T22:01:58.391Z,17.10
2018-07-07T22:04:33.527Z,17.00
2018-07-07T22:07:10.355Z,16.80
2018-07-07T22:09:39.685Z,16.70
2018-07-07T22:12:08.751Z,16.60
2018-07-07T22:14:37.819Z,16.60
2018-07-07T22:19:36.188Z,16.40
2018-07-07T22:22:07.395Z,16.40
2018-07-07T22:24:36.729Z,16.30
2018-07-07T22:27:06.834Z,16.20
2018-07-07T22:29:36.044Z,16.20
2018-07-07T22:32:06.477Z,16.00
2018-07-07T22:34:37.722Z,16.10
2018-07-07T22:37:07.087Z,16.10
2018-07-07T22:39:38.268Z,16.00
2018-07-07T22:42:09.733Z,15.90
2018-07-07T22:44:39.726Z,15.90
2018-07-07T22:47:08.778Z,15.80
2018-07-07T22:52:07.721Z,15.70
2018-07-07T22:54:36.794Z,15.80
2018-07-07T22:59:34.582Z,15.60
2018-07-07T23:04:32.393Z,15.40
2018-07-07T23:07:01.460Z,15.40
2018-07-07T23:09:30.527Z,15.50
2018-07-07T23:11:59.575Z,15.50
2018-07-07T23:14:28.651Z,15.50
2018-07-07T23:19:27.360Z,15.50
2018-07-07T23:21:58.132Z,15.50
2018-07-07T23:24:27.183Z,15.50
2018-07-07T23:26:56.254Z,15.50
2018-07-07T23:29:25.295Z,15.60
2018-07-07T23:31:54.372Z,15.60
2018-07-07T23:36:52.134Z,15.60
2018-07-07T23:41:49.935Z,15.60
2018-07-07T23:51:45.041Z,15.70
2018-07-07T23:54:14.103Z,15.70
2018-07-07T23:56:43.207Z,15.70
2018-07-07T23:59:12.250Z,15.70
